Time;durP1;ratioP1;P1;durP2;ratioP2;P2;SDS_P1;SDS_P2;PMS_P1;PMS_P2;Temp;Humidity;BMP_temperature;BMP_pressure;BME280_temperature;BME280_humidity;BME280_pressure;Samples;Min_cycle;Max_cycle;Signal;HPM_P1;HPM_P2
2023/08/14 00:01:30;;;;;;;4.35;3.50;;;;;;;;;;4976952;28;20563;-53
2023/08/14 00:03:57;;;;;;;5.32;3.75;;;;;;;;;;4977230;28;20203;-53
2023/08/14 00:06:24;;;;;;;5.07;3.63;;;;;;;;;;4976942;28;20214;-53
2023/08/14 00:08:51;;;;;;;5.78;3.90;;;;;;;;;;4977039;28;20231;-53
2023/08/14 00:11:19;;;;;;;8.38;4.32;;;;;;;;;;4977299;28;20288;-56
2023/08/14 00:13:54;;;;;;;5.80;4.38;;;;;;;;;;4976864;28;20203;-53
2023/08/14 00:16:23;;;;;;;6.05;4.30;;;;;;;;;;4975812;28;20205;-53
2023/08/14 00:18:50;;;;;;;5.50;3.95;;;;;;;;;;4976623;28;20787;-54
2023/08/14 00:21:17;;;;;;;7.07;4.20;;;;;;;;;;4976895;28;20207;-53
2023/08/14 00:23:44;;;;;;;4.15;3.75;;;;;;;;;;4976705;28;20210;-54
2023/08/14 00:26:12;;;;;;;5.65;4.28;;;;;;;;;;4976706;28;20554;-54
2023/08/14 00:28:39;;;;;;;5.85;4.50;;;;;;;;;;4977069;28;20206;-53
2023/08/14 00:31:07;;;;;;;6.60;4.10;;;;;;;;;;4975385;28;20207;-52
2023/08/14 00:33:34;;;;;;;4.32;3.70;;;;;;;;;;4976710;28;20207;-53
2023/08/14 00:36:02;;;;;;;6.57;4.63;;;;;;;;;;4975494;28;20206;-51
2023/08/14 00:38:29;;;;;;;5.53;3.20;;;;;;;;;;4976352;28;20249;-55
2023/08/14 00:40:57;;;;;;;5.35;3.78;;;;;;;;;;4976264;28;20202;-54
2023/08/14 00:43:24;;;;;;;3.58;3.00;;;;;;;;;;4975043;28;20206;-55
2023/08/14 00:45:54;;;;;;;4.47;3.60;;;;;;;;;;4976413;28;20257;-52
2023/08/14 00:48:23;;;;;;;4.47;3.90;;;;;;;;;;4976516;28;20245;-51
2023/08/14 00:50:51;;;;;;;7.25;5.18;;;;;;;;;;4976078;28;20663;-54
2023/08/14 00:53:19;;;;;;;7.05;4.88;;;;;;;;;;4974864;28;20238;-53
2023/08/14 00:55:46;;;;;;;4.88;4.10;;;;;;;;;;4974964;28;20222;-55
2023/08/14 00:58:13;;;;;;;6.22;4.85;;;;;;;;;;4975112;28;20198;-54
2023/08/14 01:00:43;;;;;;;7.97;5.55;;;;;;;;;;4974976;28;20210;-57
2023/08/14 01:03:10;;;;;;;5.28;4.68;;;;;;;;;;4974844;28;20206;-52
2023/08/14 01:05:38;;;;;;;6.75;5.10;;;;;;;;;;4974995;28;20213;-56
2023/08/14 01:08:05;;;;;;;6.95;4.90;;;;;;;;;;4975773;28;20251;-58
2023/08/14 01:11:02;;;;;;;7.20;5.20;;;;;;;;;;4975597;28;20211;-58
2023/08/14 01:13:37;;;;;;;11.30;6.10;;;;;;;;;;4974695;28;20207;-54
2023/08/14 01:16:09;;;;;;;7.70;6.13;;;;;;;;;;4975717;28;20205;-52
2023/08/14 01:18:39;;;;;;;13.05;6.60;;;;;;;;;;4975898;28;20230;-52
2023/08/14 01:21:11;;;;;;;7.57;6.00;;;;;;;;;;4974609;28;20656;-53
2023/08/14 01:23:56;;;;;;;8.20;5.78;;;;;;;;;;4974512;28;20208;-54
2023/08/14 01:26:25;;;;;;;9.23;6.13;;;;;;;;;;4975532;28;20222;-57
2023/08/14 01:28:54;;;;;;;8.15;6.03;;;;;;;;;;4974677;28;20214;-52
2023/08/14 01:31:21;;;;;;;9.80;6.63;;;;;;;;;;4975579;28;20567;-54
2023/08/14 01:33:48;;;;;;;8.63;6.32;;;;;;;;;;4975683;28;20231;-52
2023/08/14 01:36:22;;;;;;;7.90;6.03;;;;;;;;;;4975374;28;20199;-54
2023/08/14 01:39:06;;;;;;;7.90;5.78;;;;;;;;;;4975354;28;20401;-52
2023/08/14 01:41:41;;;;;;;6.63;4.95;;;;;;;;;;4975341;28;20652;-53
2023/08/14 01:44:11;;;;;;;8.32;4.57;;;;;;;;;;4975437;28;20203;-52
2023/08/14 01:46:42;;;;;;;7.47;4.78;;;;;;;;;;4958538;28;20210;-53
2023/08/14 01:49:11;;;;;;;6.85;4.50;;;;;;;;;;4974016;28;20675;-59
2023/08/14 01:51:39;;;;;;;7.05;5.07;;;;;;;;;;4974075;28;20202;-54
2023/08/14 01:54:06;;;;;;;7.50;4.50;;;;;;;;;;4973834;28;20294;-52
2023/08/14 01:56:34;;;;;;;6.93;4.93;;;;;;;;;;4975445;28;20210;-53
2023/08/14 01:59:01;;;;;;;5.22;4.72;;;;;;;;;;4973641;28;20689;-53
2023/08/14 02:01:28;;;;;;;6.30;5.35;;;;;;;;;;4973869;28;20261;-54
2023/08/14 02:03:57;;;;;;;8.65;6.05;;;;;;;;;;4974926;28;20266;-53
2023/08/14 02:06:26;;;;;;;7.90;6.25;;;;;;;;;;4955042;28;20212;-56
2023/08/14 02:08:53;;;;;;;8.35;5.78;;;;;;;;;;4964740;28;20207;-55
2023/08/14 02:11:21;;;;;;;8.90;6.07;;;;;;;;;;4958592;28;20231;-53
2023/08/14 02:13:48;;;;;;;10.10;6.35;;;;;;;;;;4970521;28;20625;-52
2023/08/14 02:16:15;;;;;;;7.60;6.38;;;;;;;;;;4955613;29;20212;-54
2023/08/14 02:18:42;;;;;;;8.45;6.10;;;;;;;;;;4955334;29;20227;-54
2023/08/14 02:21:09;;;;;;;9.35;6.28;;;;;;;;;;4955724;29;20612;-54
2023/08/14 02:23:36;;;;;;;6.82;5.55;;;;;;;;;;4955327;29;20679;-58
2023/08/14 02:26:04;;;;;;;7.20;5.32;;;;;;;;;;4955449;29;20207;-56
2023/08/14 02:28:31;;;;;;;7.55;5.22;;;;;;;;;;4955570;28;20203;-52
2023/08/14 02:31:01;;;;;;;5.72;4.57;;;;;;;;;;4973761;28;20207;-52
2023/08/14 02:33:28;;;;;;;14.27;6.13;;;;;;;;;;4973483;28;20253;-53
2023/08/14 02:35:56;;;;;;;9.13;5.65;;;;;;;;;;4972449;28;20202;-55
2023/08/14 02:38:23;;;;;;;9.70;5.43;;;;;;;;;;4973175;28;20210;-53
2023/08/14 02:40:50;;;;;;;6.80;5.43;;;;;;;;;;4973890;28;20238;-52
2023/08/14 02:43:17;;;;;;;6.68;5.60;;;;;;;;;;4974100;28;20233;-52
2023/08/14 02:45:44;;;;;;;6.45;5.22;;;;;;;;;;4972915;28;20214;-56
2023/08/14 02:48:11;;;;;;;8.50;5.47;;;;;;;;;;4974158;28;20209;-55
2023/08/14 02:50:39;;;;;;;7.65;5.70;;;;;;;;;;4965286;28;20207;-53
2023/08/14 02:53:06;;;;;;;6.13;4.72;;;;;;;;;;4969985;28;20235;-52
2023/08/14 02:55:33;;;;;;;6.55;4.97;;;;;;;;;;4969957;28;20282;-55
2023/08/14 02:58:00;;;;;;;7.47;5.57;;;;;;;;;;4954756;28;20211;-59
2023/08/14 03:00:28;;;;;;;7.40;5.55;;;;;;;;;;4954648;28;20235;-53
2023/08/14 03:02:55;;;;;;;11.60;5.63;;;;;;;;;;4954707;29;20611;-55
2023/08/14 03:05:23;;;;;;;8.63;6.22;;;;;;;;;;4969778;28;20322;-51
2023/08/14 03:07:50;;;;;;;12.65;7.32;;;;;;;;;;4955133;28;20271;-58
2023/08/14 03:10:17;;;;;;;10.45;7.70;;;;;;;;;;4954629;28;20219;-56
2023/08/14 03:12:44;;;;;;;8.10;6.68;;;;;;;;;;4954752;28;20266;-53
2023/08/14 03:15:11;;;;;;;13.18;7.25;;;;;;;;;;4954577;28;20969;-54
2023/08/14 03:17:38;;;;;;;13.07;7.47;;;;;;;;;;4969727;28;20210;-54
2023/08/14 03:20:09;;;;;;;8.77;6.65;;;;;;;;;;4956337;28;20223;-51
2023/08/14 03:22:36;;;;;;;9.80;7.47;;;;;;;;;;4973041;28;20649;-54
2023/08/14 03:25:04;;;;;;;9.60;7.65;;;;;;;;;;4957009;29;20200;-56
2023/08/14 03:27:31;;;;;;;14.55;9.52;;;;;;;;;;4958035;29;20681;-52
2023/08/14 03:29:59;;;;;;;16.20;10.15;;;;;;;;;;4957987;28;20214;-53
2023/08/14 03:32:26;;;;;;;12.55;10.18;;;;;;;;;;4973232;28;20242;-52
2023/08/14 03:34:54;;;;;;;13.70;10.27;;;;;;;;;;4956796;29;20203;-56
2023/08/14 03:37:21;;;;;;;15.43;10.00;;;;;;;;;;4972759;28;20206;-52
2023/08/14 03:39:49;;;;;;;12.75;9.50;;;;;;;;;;4960453;28;20605;-51
2023/08/14 03:42:16;;;;;;;13.57;9.32;;;;;;;;;;4977935;28;20601;-54
2023/08/14 03:44:44;;;;;;;12.13;9.00;;;;;;;;;;4971992;28;20207;-52
2023/08/14 03:47:13;;;;;;;12.80;9.52;;;;;;;;;;4976351;28;20214;-52
2023/08/14 03:49:40;;;;;;;12.00;8.52;;;;;;;;;;4977359;28;20225;-51
2023/08/14 03:52:07;;;;;;;15.85;8.35;;;;;;;;;;4977607;28;20225;-55
2023/08/14 03:54:34;;;;;;;12.38;8.57;;;;;;;;;;4976197;28;20203;-51
2023/08/14 03:57:01;;;;;;;13.10;8.38;;;;;;;;;;4976301;28;20265;-53
2023/08/14 03:59:29;;;;;;;12.25;8.20;;;;;;;;;;4976103;28;20253;-53
2023/08/14 04:01:56;;;;;;;13.70;7.95;;;;;;;;;;4977392;28;20210;-55
2023/08/14 04:04:24;;;;;;;11.18;7.55;;;;;;;;;;4977058;28;20209;-51
2023/08/14 04:06:51;;;;;;;10.52;7.53;;;;;;;;;;4976989;28;20242;-52
2023/08/14 04:09:19;;;;;;;9.68;7.68;;;;;;;;;;4975607;28;20714;-49
2023/08/14 04:11:45;;;;;;;10.85;7.43;;;;;;;;;;4977049;28;20234;-52
2023/08/14 04:14:13;;;;;;;11.35;8.05;;;;;;;;;;4975892;28;20203;-58
2023/08/14 04:16:43;;;;;;;10.40;8.07;;;;;;;;;;4977162;28;20206;-53
2023/08/14 04:19:15;;;;;;;8.45;7.07;;;;;;;;;;4975419;28;20696;-50
2023/08/14 04:21:43;;;;;;;13.43;7.10;;;;;;;;;;4975538;28;20211;-52
2023/08/14 04:24:10;;;;;;;8.70;6.72;;;;;;;;;;4976783;28;20207;-52
2023/08/14 04:26:38;;;;;;;9.57;7.78;;;;;;;;;;4975933;28;20213;-55
2023/08/14 04:29:07;;;;;;;11.65;7.40;;;;;;;;;;4976831;28;20210;-52
2023/08/14 04:31:39;;;;;;;12.90;7.80;;;;;;;;;;4976183;28;20277;-58
2023/08/14 04:34:08;;;;;;;10.13;7.60;;;;;;;;;;4975535;28;20211;-55
2023/08/14 04:36:37;;;;;;;10.73;8.20;;;;;;;;;;4986877;28;20530;-53
2023/08/14 04:39:05;;;;;;;11.00;8.50;;;;;;;;;;4994773;28;20238;-54
2023/08/14 04:41:32;;;;;;;9.95;7.90;;;;;;;;;;4995885;28;20206;-54
2023/08/14 04:44:00;;;;;;;10.10;7.93;;;;;;;;;;4994665;28;20206;-54
2023/08/14 04:46:34;;;;;;;10.02;7.18;;;;;;;;;;4994753;28;20205;-52
2023/08/14 04:49:16;;;;;;;12.05;8.07;;;;;;;;;;4994774;28;20556;-51
2023/08/14 04:51:43;;;;;;;10.00;7.47;;;;;;;;;;4994382;28;20216;-51
2023/08/14 04:54:10;;;;;;;9.85;6.80;;;;;;;;;;4978256;28;20277;-52
2023/08/14 04:56:37;;;;;;;10.18;7.05;;;;;;;;;;4976168;28;20207;-53
2023/08/14 04:59:05;;;;;;;10.48;6.45;;;;;;;;;;4974966;28;20206;-55
2023/08/14 05:01:32;;;;;;;10.82;6.10;;;;;;;;;;4975959;28;20652;-55
2023/08/14 05:04:00;;;;;;;10.82;6.43;;;;;;;;;;4974690;28;20664;-57
2023/08/14 05:06:27;;;;;;;13.18;6.55;;;;;;;;;;4974741;28;20796;-54
2023/08/14 05:08:54;;;;;;;8.88;6.93;;;;;;;;;;4974521;28;20210;-55
2023/08/14 05:11:24;;;;;;;6.85;5.65;;;;;;;;;;4974538;28;20239;-56
2023/08/14 05:13:51;;;;;;;9.50;6.03;;;;;;;;;;4975722;28;20203;-53
2023/08/14 05:16:19;;;;;;;8.77;5.43;;;;;;;;;;4975839;28;20290;-56
2023/08/14 05:18:47;;;;;;;7.35;5.78;;;;;;;;;;4974876;28;20199;-52
2023/08/14 05:21:15;;;;;;;7.10;5.47;;;;;;;;;;4974584;28;20321;-56
2023/08/14 05:23:42;;;;;;;7.07;5.22;;;;;;;;;;4975542;28;20210;-57
2023/08/14 05:26:09;;;;;;;8.13;5.43;;;;;;;;;;4975488;28;20203;-56
2023/08/14 05:28:37;;;;;;;6.32;4.82;;;;;;;;;;4975716;28;20273;-52
2023/08/14 05:31:07;;;;;;;6.43;4.75;;;;;;;;;;4975369;28;20294;-52
2023/08/14 05:33:35;;;;;;;7.97;5.40;;;;;;;;;;4975462;28;20207;-57
2023/08/14 05:36:02;;;;;;;6.53;5.43;;;;;;;;;;4975304;28;20691;-57
2023/08/14 05:38:30;;;;;;;7.20;5.03;;;;;;;;;;4975397;28;20207;-52
2023/08/14 05:40:57;;;;;;;8.13;5.28;;;;;;;;;;4975116;28;20317;-53
2023/08/14 05:43:25;;;;;;;8.02;5.18;;;;;;;;;;4974578;28;20207;-54
2023/08/14 05:45:52;;;;;;;11.25;5.68;;;;;;;;;;4975318;28;20199;-53
2023/08/14 05:48:21;;;;;;;6.72;5.13;;;;;;;;;;4964406;28;20240;-52
2023/08/14 05:50:52;;;;;;;6.63;4.72;;;;;;;;;;4955321;28;20231;-51
2023/08/14 05:53:19;;;;;;;10.15;4.95;;;;;;;;;;4974048;28;20226;-55
2023/08/14 05:55:46;;;;;;;7.97;5.35;;;;;;;;;;4974812;28;20321;-51
2023/08/14 05:58:13;;;;;;;5.75;4.88;;;;;;;;;;4973997;28;20733;-57
2023/08/14 06:00:41;;;;;;;6.50;4.20;;;;;;;;;;4973599;28;20593;-55
2023/08/14 06:03:08;;;;;;;5.95;4.88;;;;;;;;;;4971018;28;20218;-55
2023/08/14 06:05:35;;;;;;;6.07;4.93;;;;;;;;;;4969672;28;20309;-58
2023/08/14 06:08:04;;;;;;;11.13;4.72;;;;;;;;;;4971952;28;20590;-58
2023/08/14 06:10:31;;;;;;;6.15;4.47;;;;;;;;;;4965329;28;20220;-54
2023/08/14 06:12:58;;;;;;;9.25;4.72;;;;;;;;;;4965029;28;20234;-55
2023/08/14 06:15:25;;;;;;;6.85;4.70;;;;;;;;;;4969616;28;20306;-51
2023/08/14 06:17:53;;;;;;;5.90;4.13;;;;;;;;;;4974818;28;20620;-48
2023/08/14 06:20:20;;;;;;;6.28;4.10;;;;;;;;;;4968653;28;20235;-49
2023/08/14 06:22:48;;;;;;;6.20;4.00;;;;;;;;;;4957183;28;20582;-51
2023/08/14 06:25:16;;;;;;;4.70;4.03;;;;;;;;;;4964059;28;20224;-48
2023/08/14 06:27:43;;;;;;;4.80;4.22;;;;;;;;;;4954983;28;20233;-49
2023/08/14 06:30:11;;;;;;;5.28;3.60;;;;;;;;;;4954696;28;20270;-51
2023/08/14 06:32:39;;;;;;;9.45;4.55;;;;;;;;;;4965068;28;20235;-50
2023/08/14 06:35:07;;;;;;;7.88;3.88;;;;;;;;;;4962402;28;20241;-48
2023/08/14 06:37:34;;;;;;;7.13;3.85;;;;;;;;;;4973557;28;20222;-48
2023/08/14 06:40:03;;;;;;;4.38;3.38;;;;;;;;;;4973567;28;20231;-49
2023/08/14 06:42:31;;;;;;;5.38;3.50;;;;;;;;;;4971949;28;20215;-50
2023/08/14 06:44:58;;;;;;;7.13;4.18;;;;;;;;;;4970324;28;20241;-48
2023/08/14 06:47:25;;;;;;;4.75;3.67;;;;;;;;;;4973111;28;20226;-49
2023/08/14 06:49:52;;;;;;;4.45;3.67;;;;;;;;;;4964233;28;20719;-49
2023/08/14 06:52:20;;;;;;;4.43;3.78;;;;;;;;;;4966276;28;20234;-49
2023/08/14 06:54:47;;;;;;;5.85;3.65;;;;;;;;;;4974891;28;20235;-49
2023/08/14 06:57:14;;;;;;;7.28;3.50;;;;;;;;;;4976943;28;20691;-50
2023/08/14 06:59:41;;;;;;;7.18;3.97;;;;;;;;;;4971977;28;20294;-49
2023/08/14 07:02:12;;;;;;;7.15;3.60;;;;;;;;;;4960285;28;20239;-53
2023/08/14 07:04:39;;;;;;;7.32;3.47;;;;;;;;;;4957489;28;20310;-55
2023/08/14 07:07:07;;;;;;;6.65;3.70;;;;;;;;;;4958222;28;20302;-51
2023/08/14 07:09:34;;;;;;;5.72;3.67;;;;;;;;;;4965650;28;20218;-52
2023/08/14 07:12:02;;;;;;;5.20;3.25;;;;;;;;;;4968131;28;20245;-49
2023/08/14 07:14:29;;;;;;;4.15;3.50;;;;;;;;;;4966183;28;20623;-54
2023/08/14 07:16:57;;;;;;;5.18;3.60;;;;;;;;;;4961080;28;20234;-54
2023/08/14 07:19:24;;;;;;;5.25;3.53;;;;;;;;;;4966786;28;20222;-57
2023/08/14 07:21:51;;;;;;;7.13;3.38;;;;;;;;;;4980816;28;20225;-56
2023/08/14 07:24:19;;;;;;;6.28;3.30;;;;;;;;;;4996698;28;20300;-49
2023/08/14 07:26:47;;;;;;;4.63;3.03;;;;;;;;;;4996370;28;20221;-54
2023/08/14 07:29:14;;;;;;;4.90;3.20;;;;;;;;;;4984524;28;20696;-56
2023/08/14 07:31:46;;;;;;;6.95;2.67;;;;;;;;;;4973812;28;20234;-57
2023/08/14 07:34:13;;;;;;;3.45;2.72;;;;;;;;;;4976757;28;20301;-58
2023/08/14 07:36:40;;;;;;;4.45;3.13;;;;;;;;;;4976337;28;20223;-58
2023/08/14 07:39:07;;;;;;;5.55;3.58;;;;;;;;;;4976596;28;20237;-59
2023/08/14 07:41:34;;;;;;;4.65;3.55;;;;;;;;;;4976268;28;20234;-58
2023/08/14 07:44:01;;;;;;;4.68;3.50;;;;;;;;;;4976500;28;20826;-57
2023/08/14 07:46:29;;;;;;;4.68;3.28;;;;;;;;;;4987841;28;20219;-58
2023/08/14 07:48:56;;;;;;;7.00;3.38;;;;;;;;;;4975741;28;20233;-59
2023/08/14 07:51:23;;;;;;;5.18;3.28;;;;;;;;;;4975705;28;20734;-58
2023/08/14 07:53:50;;;;;;;3.92;3.03;;;;;;;;;;4975693;28;20219;-58
2023/08/14 07:56:17;;;;;;;4.57;2.70;;;;;;;;;;4969222;28;20218;-58
2023/08/14 07:58:44;;;;;;;4.75;3.08;;;;;;;;;;4977362;28;20277;-57
2023/08/14 08:01:12;;;;;;;3.38;2.65;;;;;;;;;;4969758;28;20292;-58
2023/08/14 08:03:39;;;;;;;3.83;3.05;;;;;;;;;;4971218;28;20223;-57
2023/08/14 08:06:07;;;;;;;3.50;3.13;;;;;;;;;;4974878;28;20223;-58
2023/08/14 08:08:34;;;;;;;4.45;3.00;;;;;;;;;;4975190;28;20231;-58
2023/08/14 08:11:02;;;;;;;5.15;2.67;;;;;;;;;;4975147;28;20246;-58
2023/08/14 08:13:29;;;;;;;5.32;3.25;;;;;;;;;;4975426;28;20733;-57
2023/08/14 08:15:56;;;;;;;5.65;3.17;;;;;;;;;;4975317;28;20230;-59
2023/08/14 08:18:23;;;;;;;8.60;3.17;;;;;;;;;;4975016;28;20707;-57
2023/08/14 08:20:51;;;;;;;16.80;4.63;;;;;;;;;;4974646;28;20536;-58
2023/08/14 08:23:18;;;;;;;52.28;9.23;;;;;;;;;;4956021;28;20237;-58
2023/08/14 08:25:46;;;;;;;19.33;5.13;;;;;;;;;;4955616;28;20235;-59
2023/08/14 08:28:13;;;;;;;31.42;6.32;;;;;;;;;;4974584;28;20223;-58
2023/08/14 08:30:40;;;;;;;12.48;4.30;;;;;;;;;;4975384;28;20235;-58
2023/08/14 08:33:07;;;;;;;9.43;3.47;;;;;;;;;;4974740;28;20254;-56
2023/08/14 08:35:34;;;;;;;16.48;4.25;;;;;;;;;;4975167;28;20741;-56
2023/08/14 08:38:01;;;;;;;13.07;4.53;;;;;;;;;;4975166;28;20730;-57
2023/08/14 08:40:30;;;;;;;6.90;3.75;;;;;;;;;;4974378;28;20245;-55
2023/08/14 08:42:58;;;;;;;11.88;4.75;;;;;;;;;;4974351;28;20228;-56
2023/08/14 08:45:31;;;;;;;10.23;4.72;;;;;;;;;;4973698;28;20589;-56
2023/08/14 08:48:02;;;;;;;4.70;3.40;;;;;;;;;;4972237;28;20254;-54
2023/08/14 08:50:30;;;;;;;8.52;3.80;;;;;;;;;;4973272;28;20268;-56
2023/08/14 08:52:58;;;;;;;4.97;3.45;;;;;;;;;;4973302;28;20265;-56
2023/08/14 08:55:26;;;;;;;4.53;3.17;;;;;;;;;;4973665;28;20239;-54
2023/08/14 08:57:53;;;;;;;4.95;3.28;;;;;;;;;;4964546;28;20210;-56
2023/08/14 09:00:21;;;;;;;5.43;3.70;;;;;;;;;;4954075;29;20618;-56
2023/08/14 09:02:51;;;;;;;9.10;4.72;;;;;;;;;;4967428;28;20220;-55
2023/08/14 09:05:20;;;;;;;6.90;3.70;;;;;;;;;;4973819;28;20206;-55
2023/08/14 09:07:47;;;;;;;4.28;3.55;;;;;;;;;;4973009;28;20203;-55
2023/08/14 09:10:16;;;;;;;5.30;3.35;;;;;;;;;;4972143;28;20208;-56
2023/08/14 09:12:43;;;;;;;4.68;3.60;;;;;;;;;;4972243;28;20245;-55
2023/08/14 09:15:10;;;;;;;12.38;3.60;;;;;;;;;;4971948;28;20202;-55
2023/08/14 09:17:37;;;;;;;9.98;3.70;;;;;;;;;;4970799;28;20206;-55
2023/08/14 09:20:06;;;;;;;9.32;3.47;;;;;;;;;;4973346;28;20278;-56
2023/08/14 09:22:45;;;;;;;5.25;3.92;;;;;;;;;;4974208;28;20206;-56
2023/08/14 09:25:14;;;;;;;9.27;3.90;;;;;;;;;;4974837;28;20203;-56
2023/08/14 09:27:44;;;;;;;8.90;3.70;;;;;;;;;;4975258;28;20195;-56
2023/08/14 09:30:13;;;;;;;6.47;3.17;;;;;;;;;;4974826;28;20246;-54
2023/08/14 09:32:40;;;;;;;4.35;3.10;;;;;;;;;;4974775;28;20230;-56
2023/08/14 09:35:07;;;;;;;4.88;3.40;;;;;;;;;;4975146;28;20207;-55
2023/08/14 09:37:35;;;;;;;6.50;3.15;;;;;;;;;;4974419;28;20199;-56
2023/08/14 09:40:16;;;;;;;6.28;3.20;;;;;;;;;;4974302;28;20615;-55
2023/08/14 09:42:47;;;;;;;3.10;2.80;;;;;;;;;;4974631;28;20707;-56
2023/08/14 09:45:23;;;;;;;3.95;3.33;;;;;;;;;;4974525;28;20196;-56
2023/08/14 09:47:51;;;;;;;5.03;3.38;;;;;;;;;;4975027;28;20195;-56
2023/08/14 09:50:21;;;;;;;4.25;3.60;;;;;;;;;;4974486;28;20215;-55
2023/08/14 09:52:48;;;;;;;3.40;3.10;;;;;;;;;;4974728;28;20329;-52
2023/08/14 09:55:16;;;;;;;6.50;3.40;;;;;;;;;;4974861;28;20573;-54
2023/08/14 09:57:44;;;;;;;4.75;3.90;;;;;;;;;;4976178;28;20198;-53
2023/08/14 10:00:12;;;;;;;4.47;3.22;;;;;;;;;;4993858;28;20213;-55
2023/08/14 10:02:41;;;;;;;10.38;3.17;;;;;;;;;;4984836;28;20214;-54
2023/08/14 10:05:09;;;;;;;3.40;3.10;;;;;;;;;;4973275;28;20207;-56
2023/08/14 10:07:38;;;;;;;4.28;3.00;;;;;;;;;;4974504;28;20560;-57
2023/08/14 10:10:11;;;;;;;5.32;3.22;;;;;;;;;;4973804;28;20202;-58
2023/08/14 10:12:57;;;;;;;5.60;3.30;;;;;;;;;;4974713;28;20321;-57
2023/08/14 10:15:29;;;;;;;6.95;3.42;;;;;;;;;;4974313;28;20194;-56
2023/08/14 10:17:58;;;;;;;4.85;3.70;;;;;;;;;;4974417;28;20282;-57
2023/08/14 10:20:28;;;;;;;7.07;3.50;;;;;;;;;;4968015;28;20644;-57
2023/08/14 10:22:55;;;;;;;11.68;4.20;;;;;;;;;;4972571;28;20306;-55
2023/08/14 10:25:23;;;;;;;5.40;3.60;;;;;;;;;;4971186;28;20687;-58
2023/08/14 10:27:52;;;;;;;4.95;3.70;;;;;;;;;;4974275;28;20417;-55
2023/08/14 10:30:22;;;;;;;7.22;4.00;;;;;;;;;;4973718;28;20213;-56
2023/08/14 10:32:51;;;;;;;7.95;3.80;;;;;;;;;;4974253;28;20250;-55
2023/08/14 10:35:23;;;;;;;5.55;3.70;;;;;;;;;;4972655;28;20207;-56
2023/08/14 10:37:52;;;;;;;5.18;3.30;;;;;;;;;;4974240;28;20195;-55
2023/08/14 10:40:50;;;;;;;5.40;3.40;;;;;;;;;;4973525;28;20190;-56
2023/08/14 10:43:24;;;;;;;4.57;3.70;;;;;;;;;;4973581;28;20632;-61
2023/08/14 10:45:52;;;;;;;6.47;3.70;;;;;;;;;;4973787;28;20190;-61
2023/08/14 10:48:20;;;;;;;7.07;3.92;;;;;;;;;;4973727;28;20199;-61
2023/08/14 10:50:49;;;;;;;9.68;3.63;;;;;;;;;;4973911;28;20206;-61
2023/08/14 10:53:16;;;;;;;5.10;3.83;;;;;;;;;;4972683;28;20210;-60
2023/08/14 10:55:45;;;;;;;6.03;4.10;;;;;;;;;;4972085;28;20222;-61
2023/08/14 10:58:35;;;;;;;7.75;4.00;;;;;;;;;;4973647;28;20242;-61
2023/08/14 11:01:03;;;;;;;4.80;3.83;;;;;;;;;;4972966;28;20262;-61
2023/08/14 11:03:54;;;;;;;7.55;3.80;;;;;;;;;;4964110;28;20208;-61
2023/08/14 11:06:26;;;;;;;6.53;3.72;;;;;;;;;;4954603;28;20214;-62
2023/08/14 11:08:58;;;;;;;11.63;4.13;;;;;;;;;;4969811;28;20199;-61
2023/08/14 11:11:26;;;;;;;6.55;3.70;;;;;;;;;;4956922;28;20239;-61
2023/08/14 11:13:55;;;;;;;4.70;3.10;;;;;;;;;;4971819;28;20914;-61
2023/08/14 11:16:22;;;;;;;5.88;3.47;;;;;;;;;;4973004;28;20580;-61
2023/08/14 11:18:51;;;;;;;5.18;3.65;;;;;;;;;;4973120;28;20253;-61
2023/08/14 11:21:18;;;;;;;5.95;3.67;;;;;;;;;;4961099;28;20235;-61
2023/08/14 11:23:57;;;;;;;4.50;3.13;;;;;;;;;;4972829;28;20222;-59
2023/08/14 11:26:29;;;;;;;6.10;3.85;;;;;;;;;;4972338;28;20239;-61
2023/08/14 11:28:56;;;;;;;6.43;3.50;;;;;;;;;;4958269;28;20223;-61
2023/08/14 11:31:24;;;;;;;13.50;3.90;;;;;;;;;;4954213;28;20250;-61
2023/08/14 11:34:05;;;;;;;4.50;3.15;;;;;;;;;;4969337;28;20296;-61
2023/08/14 11:36:32;;;;;;;4.97;3.50;;;;;;;;;;4973139;28;20234;-61
2023/08/14 11:39:01;;;;;;;4.80;3.22;;;;;;;;;;4972621;28;20262;-61
2023/08/14 11:41:28;;;;;;;4.00;3.40;;;;;;;;;;4973149;28;20293;-61
2023/08/14 11:43:58;;;;;;;4.88;3.80;;;;;;;;;;4976350;28;20303;-60
2023/08/14 11:46:25;;;;;;;5.43;3.55;;;;;;;;;;4975179;28;20230;-60
2023/08/14 11:48:53;;;;;;;3.47;3.17;;;;;;;;;;4975135;28;20229;-60
2023/08/14 11:51:20;;;;;;;10.00;3.80;;;;;;;;;;4976132;28;20730;-61
2023/08/14 11:53:47;;;;;;;6.00;3.50;;;;;;;;;;4976176;28;20313;-61
2023/08/14 11:56:15;;;;;;;4.47;3.35;;;;;;;;;;4973216;28;22775;-60
2023/08/14 11:58:42;;;;;;;4.43;3.58;;;;;;;;;;4975670;28;20317;-60
2023/08/14 12:01:18;;;;;;;7.80;3.50;;;;;;;;;;4975940;28;20236;-61
2023/08/14 12:03:45;;;;;;;4.50;3.65;;;;;;;;;;4974810;28;20587;-62
2023/08/14 12:06:13;;;;;;;6.50;3.83;;;;;;;;;;4975549;28;20246;-60
2023/08/14 12:08:40;;;;;;;8.25;3.47;;;;;;;;;;4975891;28;20231;-61
2023/08/14 12:11:07;;;;;;;7.05;3.03;;;;;;;;;;4974341;28;20592;-61
2023/08/14 12:13:34;;;;;;;4.65;3.03;;;;;;;;;;4975751;28;20234;-61
2023/08/14 12:16:06;;;;;;;5.93;3.10;;;;;;;;;;4975934;28;20226;-62
2023/08/14 12:18:42;;;;;;;5.25;3.25;;;;;;;;;;4975711;28;20222;-61
2023/08/14 12:21:11;;;;;;;4.13;3.58;;;;;;;;;;4975971;28;20231;-62
2023/08/14 12:23:49;;;;;;;6.63;3.65;;;;;;;;;;4975100;28;20234;-62
2023/08/14 12:26:16;;;;;;;8.75;3.13;;;;;;;;;;4974747;28;20241;-62
2023/08/14 12:28:43;;;;;;;6.28;3.55;;;;;;;;;;4975537;28;20648;-61
2023/08/14 12:31:13;;;;;;;4.00;3.25;;;;;;;;;;4974607;28;20241;-62
2023/08/14 12:33:43;;;;;;;6.30;3.42;;;;;;;;;;4971334;28;20312;-62
2023/08/14 12:36:15;;;;;;;5.38;3.78;;;;;;;;;;4959638;28;20233;-61
2023/08/14 12:38:42;;;;;;;4.97;3.60;;;;;;;;;;4973949;28;20703;-61
2023/08/14 12:41:10;;;;;;;5.50;4.00;;;;;;;;;;4965946;28;20227;-61
2023/08/14 12:43:37;;;;;;;12.55;4.32;;;;;;;;;;4964278;28;20242;-60
2023/08/14 12:46:10;;;;;;;4.38;3.58;;;;;;;;;;4974273;28;20226;-60
2023/08/14 12:48:37;;;;;;;4.43;3.58;;;;;;;;;;4975032;28;20242;-62
2023/08/14 12:51:05;;;;;;;11.27;3.58;;;;;;;;;;4975746;28;20210;-61
2023/08/14 12:53:33;;;;;;;10.27;4.35;;;;;;;;;;4975495;28;20257;-61
2023/08/14 12:56:01;;;;;;;6.03;3.20;;;;;;;;;;4959194;28;20213;-62
2023/08/14 12:58:30;;;;;;;5.43;3.97;;;;;;;;;;4975033;28;20203;-61
2023/08/14 13:00:58;;;;;;;6.22;3.53;;;;;;;;;;4975705;28;20261;-61
2023/08/14 13:03:32;;;;;;;6.18;3.90;;;;;;;;;;4975179;28;20262;-62
2023/08/14 13:06:06;;;;;;;7.22;3.67;;;;;;;;;;4975395;28;20198;-61
2023/08/14 13:08:34;;;;;;;8.95;3.85;;;;;;;;;;4975698;28;20207;-61
2023/08/14 13:11:01;;;;;;;9.55;3.38;;;;;;;;;;4980455;28;20296;-62
2023/08/14 13:13:29;;;;;;;5.10;3.25;;;;;;;;;;4988920;28;20195;-62
2023/08/14 13:15:57;;;;;;;6.20;3.65;;;;;;;;;;4966303;28;20234;-62
2023/08/14 13:18:24;;;;;;;5.65;3.25;;;;;;;;;;4959513;28;20246;-61
2023/08/14 13:20:51;;;;;;;4.10;3.42;;;;;;;;;;4973790;28;20230;-61
2023/08/14 13:23:18;;;;;;;4.20;2.50;;;;;;;;;;4973860;28;20238;-62
2023/08/14 13:25:46;;;;;;;5.60;3.20;;;;;;;;;;4972645;28;20706;-61
2023/08/14 13:28:13;;;;;;;4.85;3.40;;;;;;;;;;4973661;28;20222;-62
2023/08/14 13:30:40;;;;;;;3.17;2.60;;;;;;;;;;4972902;28;20318;-61
2023/08/14 13:33:13;;;;;;;9.90;3.10;;;;;;;;;;4972342;28;20602;-62
2023/08/14 13:35:41;;;;;;;3.78;2.97;;;;;;;;;;4972847;28;20227;-62
2023/08/14 13:38:08;;;;;;;3.92;3.05;;;;;;;;;;4965417;28;20301;-61
2023/08/14 13:40:36;;;;;;;8.70;3.10;;;;;;;;;;4965841;28;20222;-62
2023/08/14 13:43:03;;;;;;;5.32;3.30;;;;;;;;;;4974453;28;20238;-62
2023/08/14 13:45:31;;;;;;;4.47;3.08;;;;;;;;;;4973858;28;20238;-63
2023/08/14 13:47:58;;;;;;;3.38;2.90;;;;;;;;;;4967472;28;20222;-61
2023/08/14 13:50:27;;;;;;;3.55;2.80;;;;;;;;;;4969483;28;20293;-61
2023/08/14 13:52:58;;;;;;;2.95;2.65;;;;;;;;;;4974685;28;20257;-61
2023/08/14 13:55:33;;;;;;;3.17;2.70;;;;;;;;;;4964026;28;20227;-61
2023/08/14 13:58:01;;;;;;;3.38;2.75;;;;;;;;;;4972933;28;20215;-62
2023/08/14 14:00:28;;;;;;;4.22;3.00;;;;;;;;;;4972929;28;20355;-59
2023/08/14 14:02:57;;;;;;;3.78;2.85;;;;;;;;;;4966670;28;20231;-61
2023/08/14 14:05:26;;;;;;;4.97;2.95;;;;;;;;;;4959651;28;20703;-60
2023/08/14 14:07:54;;;;;;;3.92;3.00;;;;;;;;;;4961438;28;20233;-60
2023/08/14 14:10:24;;;;;;;3.92;2.90;;;;;;;;;;4970597;28;20245;-61
2023/08/14 14:12:51;;;;;;;7.15;3.30;;;;;;;;;;4958974;28;20235;-60
2023/08/14 14:15:22;;;;;;;3.80;2.80;;;;;;;;;;4972882;28;20223;-60
2023/08/14 14:17:49;;;;;;;6.20;3.00;;;;;;;;;;4973141;28;20645;-60
2023/08/14 14:20:17;;;;;;;4.60;3.20;;;;;;;;;;4974159;28;20562;-59
2023/08/14 14:22:44;;;;;;;5.43;3.45;;;;;;;;;;4970981;28;20738;-60
2023/08/14 14:25:11;;;;;;;5.05;3.30;;;;;;;;;;4969949;28;20628;-59
2023/08/14 14:27:38;;;;;;;4.07;3.15;;;;;;;;;;4958216;28;20238;-59
2023/08/14 14:30:06;;;;;;;5.13;3.20;;;;;;;;;;4972897;28;20624;-59
2023/08/14 14:32:34;;;;;;;4.30;3.47;;;;;;;;;;4954395;28;20246;-58
2023/08/14 14:35:02;;;;;;;6.78;3.58;;;;;;;;;;4972559;28;20226;-59
2023/08/14 14:37:30;;;;;;;5.10;2.65;;;;;;;;;;4973216;28;20235;-62
2023/08/14 14:39:57;;;;;;;7.70;3.65;;;;;;;;;;4973253;28;20235;-62
2023/08/14 14:42:25;;;;;;;4.65;2.78;;;;;;;;;;4973050;28;20711;-59
2023/08/14 14:44:53;;;;;;;7.97;3.15;;;;;;;;;;4973769;28;20598;-60
2023/08/14 14:47:22;;;;;;;5.13;3.00;;;;;;;;;;4973232;28;20745;-59
2023/08/14 14:49:51;;;;;;;5.90;3.05;;;;;;;;;;4983188;28;20222;-61